sensor_id;sensor_type;location;lat;lon;timestamp;pressure;altitude;pressure_sealevel;temperature;humidity
64889;BME280;51386;53.082;8.816;2024-02-04T00:01:15;101882.94;;;11.52;61.74
64889;BME280;51386;53.082;8.816;2024-02-04T00:03:45;101880.28;;;11.52;61.84
64889;BME280;51386;53.082;8.816;2024-02-04T00:06:13;101869.09;;;11.50;61.95
64889;BME280;51386;53.082;8.816;2024-02-04T00:08:42;101866.44;;;11.50;62.06
64889;BME280;51386;53.082;8.816;2024-02-04T00:11:10;101864.78;;;11.49;62.10
64889;BME280;51386;53.082;8.816;2024-02-04T00:13:39;101862.13;;;11.49;62.02
64889;BME280;51386;53.082;8.816;2024-02-04T00:16:08;101856.19;;;11.47;62.35
64889;BME280;51386;53.082;8.816;2024-02-04T00:18:36;101843.31;;;11.44;62.30
64889;BME280;51386;53.082;8.816;2024-02-04T00:21:05;101835.03;;;11.39;62.42
64889;BME280;51386;53.082;8.816;2024-02-04T00:23:33;101853.81;;;11.36;62.56
64889;BME280;51386;53.082;8.816;2024-02-04T00:26:02;101841.59;;;11.35;63.02
64889;BME280;51386;53.082;8.816;2024-02-04T00:28:30;101834.97;;;11.31;63.03
64889;BME280;51386;53.082;8.816;2024-02-04T00:30:59;101833.59;;;11.27;63.27
64889;BME280;51386;53.082;8.816;2024-02-04T00:33:27;101835.06;;;11.21;63.17
64889;BME280;51386;53.082;8.816;2024-02-04T00:35:56;101830.25;;;11.17;63.55
64889;BME280;51386;53.082;8.816;2024-02-04T00:38:24;101838.75;;;11.11;63.75
64889;BME280;51386;53.082;8.816;2024-02-04T00:40:52;101833.09;;;11.06;63.98
64889;BME280;51386;53.082;8.816;2024-02-04T00:43:22;101829.94;;;11.02;64.27
64889;BME280;51386;53.082;8.816;2024-02-04T00:45:50;101831.06;;;11.00;64.64
64889;BME280;51386;53.082;8.816;2024-02-04T00:48:19;101834.84;;;10.97;64.61
64889;BME280;51386;53.082;8.816;2024-02-04T00:50:47;101830.03;;;10.93;64.72
64889;BME280;51386;53.082;8.816;2024-02-04T00:53:16;101827.84;;;10.88;65.29
64889;BME280;51386;53.082;8.816;2024-02-04T00:55:44;101820.06;;;10.86;65.63
64889;BME280;51386;53.082;8.816;2024-02-04T00:58:13;101824.66;;;10.84;65.61
64889;BME280;51386;53.082;8.816;2024-02-04T01:00:41;101821.34;;;10.82;65.84
64889;BME280;51386;53.082;8.816;2024-02-04T01:03:09;101825.94;;;10.80;66.00
64889;BME280;51386;53.082;8.816;2024-02-04T01:05:38;101829.53;;;10.79;66.06
64889;BME280;51386;53.082;8.816;2024-02-04T01:08:07;101834.13;;;10.77;66.38
64889;BME280;51386;53.082;8.816;2024-02-04T01:10:35;101834.28;;;10.76;66.65
64889;BME280;51386;53.082;8.816;2024-02-04T01:13:04;101837.06;;;10.74;66.90
64889;BME280;51386;53.082;8.816;2024-02-04T01:15:33;101826.84;;;10.71;67.21
64889;BME280;51386;53.082;8.816;2024-02-04T01:18:01;101828.81;;;10.69;67.15
64889;BME280;51386;53.082;8.816;2024-02-04T01:20:30;101830.72;;;10.67;67.31
64889;BME280;51386;53.082;8.816;2024-02-04T01:22:58;101816.09;;;10.65;67.46
64889;BME280;51386;53.082;8.816;2024-02-04T01:25:26;101822.47;;;10.62;67.74
64889;BME280;51386;53.082;8.816;2024-02-04T01:27:55;101847.13;;;10.61;67.63
64889;BME280;51386;53.082;8.816;2024-02-04T01:30:23;101845.47;;;10.60;67.77
64889;BME280;51386;53.082;8.816;2024-02-04T01:32:51;101843.81;;;10.59;67.89
64889;BME280;51386;53.082;8.816;2024-02-04T01:35:20;101845.63;;;10.59;68.15
64889;BME280;51386;53.082;8.816;2024-02-04T01:37:48;101847.41;;;10.58;68.30
64889;BME280;51386;53.082;8.816;2024-02-04T01:40:17;101853.50;;;10.59;68.28
64889;BME280;51386;53.082;8.816;2024-02-04T01:42:45;101851.72;;;10.59;68.66
64889;BME280;51386;53.082;8.816;2024-02-04T01:45:13;101845.78;;;10.57;69.03
64889;BME280;51386;53.082;8.816;2024-02-04T01:47:42;101845.78;;;10.57;68.93
64889;BME280;51386;53.082;8.816;2024-02-04T01:50:10;101839.50;;;10.58;69.07
64889;BME280;51386;53.082;8.816;2024-02-04T01:52:40;101842.16;;;10.58;69.03
64889;BME280;51386;53.082;8.816;2024-02-04T01:55:11;101838.69;;;10.58;69.27
64889;BME280;51386;53.082;8.816;2024-02-04T01:57:40;101814.19;;;10.57;69.15
64889;BME280;51386;53.082;8.816;2024-02-04T02:00:10;101801.97;;;10.56;69.33
64889;BME280;51386;53.082;8.816;2024-02-04T02:02:40;101797.84;;;10.54;69.39
64889;BME280;51386;53.082;8.816;2024-02-04T02:05:09;101782.88;;;10.54;69.77
64889;BME280;51386;53.082;8.816;2024-02-04T02:07:37;101788.16;;;10.54;69.52
64889;BME280;51386;53.082;8.816;2024-02-04T02:10:06;101788.16;;;10.54;69.53
64889;BME280;51386;53.082;8.816;2024-02-04T02:12:50;101781.53;;;10.50;69.45
64889;BME280;51386;53.082;8.816;2024-02-04T02:15:25;101775.44;;;10.50;69.45
64889;BME280;51386;53.082;8.816;2024-02-04T02:18:19;101781.16;;;10.45;69.56
64889;BME280;51386;53.082;8.816;2024-02-04T02:26:55;101785.72;;;10.43;69.74
64889;BME280;51386;53.082;8.816;2024-02-04T02:29:26;101779.47;;;10.44;69.59
64889;BME280;51386;53.082;8.816;2024-02-04T02:31:55;101782.09;;;10.44;69.77
64889;BME280;51386;53.082;8.816;2024-02-04T02:34:23;101780.47;;;10.43;69.69
64889;BME280;51386;53.082;8.816;2024-02-04T02:37:36;101780.75;;;10.40;69.65
64889;BME280;51386;53.082;8.816;2024-02-04T02:40:23;101781.03;;;10.37;69.75
64889;BME280;51386;53.082;8.816;2024-02-04T02:43:17;101779.09;;;10.39;69.98
64889;BME280;51386;53.082;8.816;2024-02-04T02:45:47;101789.63;;;10.39;69.73
64889;BME280;51386;53.082;8.816;2024-02-04T02:48:16;101795.72;;;10.40;69.71
64889;BME280;51386;53.082;8.816;2024-02-04T02:50:45;101787.81;;;10.40;69.92
64889;BME280;51386;53.082;8.816;2024-02-04T02:53:13;101776.47;;;10.39;69.73
64889;BME280;51386;53.082;8.816;2024-02-04T02:55:41;101777.44;;;10.38;69.72
64889;BME280;51386;53.082;8.816;2024-02-04T02:58:10;101770.53;;;10.37;69.98
64889;BME280;51386;53.082;8.816;2024-02-04T03:00:38;101763.63;;;10.36;69.88
64889;BME280;51386;53.082;8.816;2024-02-04T03:03:07;101762.78;;;10.36;69.93
64889;BME280;51386;53.082;8.816;2024-02-04T03:05:35;101755.00;;;10.34;69.80
64889;BME280;51386;53.082;8.816;2024-02-04T03:08:05;101749.75;;;10.34;69.75
64889;BME280;51386;53.082;8.816;2024-02-04T03:10:34;101742.84;;;10.33;69.94
64889;BME280;51386;53.082;8.816;2024-02-04T03:13:02;101749.09;;;10.32;69.93
64889;BME280;51386;53.082;8.816;2024-02-04T03:15:31;101758.94;;;10.30;69.83
64889;BME280;51386;53.082;8.816;2024-02-04T03:17:59;101745.78;;;10.30;69.77
64889;BME280;51386;53.082;8.816;2024-02-04T03:20:27;101755.63;;;10.28;69.87
64889;BME280;51386;53.082;8.816;2024-02-04T03:22:56;101745.09;;;10.28;70.09
64889;BME280;51386;53.082;8.816;2024-02-04T03:25:25;101736.38;;;10.28;69.98
64889;BME280;51386;53.082;8.816;2024-02-04T03:27:55;101741.78;;;10.26;69.85
64889;BME280;51386;53.082;8.816;2024-02-04T03:30:23;101740.97;;;10.26;69.67
64889;BME280;51386;53.082;8.816;2024-02-04T03:32:51;101738.47;;;10.24;69.61
64889;BME280;51386;53.082;8.816;2024-02-04T03:35:20;101742.06;;;10.23;69.54
64889;BME280;51386;53.082;8.816;2024-02-04T03:37:48;101749.00;;;10.24;69.70
64889;BME280;51386;53.082;8.816;2024-02-04T03:40:17;101754.28;;;10.24;69.71
64889;BME280;51386;53.082;8.816;2024-02-04T03:42:47;101744.72;;;10.23;69.78
64889;BME280;51386;53.082;8.816;2024-02-04T03:45:16;101747.34;;;10.23;69.79
64889;BME280;51386;53.082;8.816;2024-02-04T03:47:45;101747.34;;;10.23;69.62
64889;BME280;51386;53.082;8.816;2024-02-04T03:50:13;101750.25;;;10.20;69.64
64889;BME280;51386;53.082;8.816;2024-02-04T03:52:42;101751.25;;;10.19;69.46
64889;BME280;51386;53.082;8.816;2024-02-04T03:55:11;101749.56;;;10.18;69.56
64889;BME280;51386;53.082;8.816;2024-02-04T03:57:39;101746.28;;;10.16;69.46
64889;BME280;51386;53.082;8.816;2024-02-04T04:00:08;101758.75;;;10.14;69.42
64889;BME280;51386;53.082;8.816;2024-02-04T04:02:37;101758.75;;;10.14;69.26
64889;BME280;51386;53.082;8.816;2024-02-04T04:05:06;101755.44;;;10.12;69.65
64889;BME280;51386;53.082;8.816;2024-02-04T04:07:40;101748.47;;;10.11;69.35
64889;BME280;51386;53.082;8.816;2024-02-04T04:10:09;101746.84;;;10.10;69.18
64889;BME280;51386;53.082;8.816;2024-02-04T04:12:37;101759.72;;;10.13;69.43
64889;BME280;51386;53.082;8.816;2024-02-04T04:15:06;101749.88;;;10.15;69.48
64889;BME280;51386;53.082;8.816;2024-02-04T04:17:34;101754.00;;;10.17;69.42
64889;BME280;51386;53.082;8.816;2024-02-04T04:20:06;101756.50;;;10.19;69.46
64889;BME280;51386;53.082;8.816;2024-02-04T04:22:35;101743.19;;;10.20;69.27
64889;BME280;51386;53.082;8.816;2024-02-04T04:25:04;101748.34;;;10.22;68.99
64889;BME280;51386;53.082;8.816;2024-02-04T04:27:32;101756.91;;;10.24;69.27
64889;BME280;51386;53.082;8.816;2024-02-04T04:30:00;101765.31;;;10.28;69.00
64889;BME280;51386;53.082;8.816;2024-02-04T04:32:29;101758.09;;;10.30;68.86
64889;BME280;51386;53.082;8.816;2024-02-04T04:34:57;101771.97;;;10.32;68.84
64889;BME280;51386;53.082;8.816;2024-02-04T04:37:26;101770.00;;;10.34;68.89
64889;BME280;51386;53.082;8.816;2024-02-04T04:39:54;101765.25;;;10.37;68.86
64889;BME280;51386;53.082;8.816;2024-02-04T04:42:23;101771.88;;;10.41;68.50
64889;BME280;51386;53.082;8.816;2024-02-04T04:44:52;101776.00;;;10.44;68.27
64889;BME280;51386;53.082;8.816;2024-02-04T04:47:20;101768.81;;;10.46;68.30
64889;BME280;51386;53.082;8.816;2024-02-04T04:49:48;101760.78;;;10.47;68.21
64889;BME280;51386;53.082;8.816;2024-02-04T04:52:17;101752.88;;;10.47;67.97
64889;BME280;51386;53.082;8.816;2024-02-04T04:54:45;101745.25;;;10.44;67.77
64889;BME280;51386;53.082;8.816;2024-02-04T04:57:14;101749.19;;;10.40;67.63
64889;BME280;51386;53.082;8.816;2024-02-04T04:59:43;101751.41;;;10.35;67.51
64889;BME280;51386;53.082;8.816;2024-02-04T05:02:11;101756.28;;;10.30;67.71
64889;BME280;51386;53.082;8.816;2024-02-04T05:04:43;101747.88;;;10.27;67.42
64889;BME280;51386;53.082;8.816;2024-02-04T05:07:15;101750.66;;;10.25;67.42
64889;BME280;51386;53.082;8.816;2024-02-04T05:09:44;101729.91;;;10.22;67.51
64889;BME280;51386;53.082;8.816;2024-02-04T05:12:13;101746.66;;;10.21;67.29
64889;BME280;51386;53.082;8.816;2024-02-04T05:14:41;101749.44;;;10.19;67.13
64889;BME280;51386;53.082;8.816;2024-02-04T05:17:10;101753.03;;;10.18;67.07
64889;BME280;51386;53.082;8.816;2024-02-04T05:19:41;101737.41;;;10.17;66.96
64889;BME280;51386;53.082;8.816;2024-02-04T05:22:10;101746.94;;;10.18;66.82
64889;BME280;51386;53.082;8.816;2024-02-04T05:24:39;101724.09;;;10.18;66.90
64889;BME280;51386;53.082;8.816;2024-02-04T05:27:07;101733.78;;;10.18;66.85
64889;BME280;51386;53.082;8.816;2024-02-04T05:29:35;101721.47;;;10.18;66.63
64889;BME280;51386;53.082;8.816;2024-02-04T05:32:04;101716.06;;;10.20;66.76
64889;BME280;51386;53.082;8.816;2024-02-04T05:34:33;101714.13;;;10.22;66.69
64889;BME280;51386;53.082;8.816;2024-02-04T05:37:02;101714.94;;;10.23;66.40
64889;BME280;51386;53.082;8.816;2024-02-04T05:39:31;101699.31;;;10.21;66.32
64889;BME280;51386;53.082;8.816;2024-02-04T05:41:59;101687.81;;;10.22;66.19
64889;BME280;51386;53.082;8.816;2024-02-04T05:44:28;101701.94;;;10.21;65.98
64889;BME280;51386;53.082;8.816;2024-02-04T05:46:56;101697.50;;;10.22;66.31
64889;BME280;51386;53.082;8.816;2024-02-04T05:49:24;101692.38;;;10.20;65.86
64889;BME280;51386;53.082;8.816;2024-02-04T05:51:53;101674.81;;;10.20;65.99
64889;BME280;51386;53.082;8.816;2024-02-04T05:54:21;101676.75;;;10.18;65.72
64889;BME280;51386;53.082;8.816;2024-02-04T05:56:50;101689.22;;;10.16;65.55
64889;BME280;51386;53.082;8.816;2024-02-04T05:59:18;101683.13;;;10.16;65.66
64889;BME280;51386;53.082;8.816;2024-02-04T06:01:46;101683.13;;;10.16;65.72
64889;BME280;51386;53.082;8.816;2024-02-04T06:04:15;101677.88;;;10.16;65.79
64889;BME280;51386;53.082;8.816;2024-02-04T06:06:43;101665.69;;;10.15;65.50
64889;BME280;51386;53.082;8.816;2024-02-04T06:09:12;101667.34;;;10.16;65.56
64889;BME280;51386;53.082;8.816;2024-02-04T06:11:44;101662.09;;;10.16;65.74
64889;BME280;51386;53.082;8.816;2024-02-04T06:14:14;101655.31;;;10.13;65.65
64889;BME280;51386;53.082;8.816;2024-02-04T06:16:42;101657.13;;;10.13;65.46
64889;BME280;51386;53.082;8.816;2024-02-04T06:19:10;101654.50;;;10.13;65.34
64889;BME280;51386;53.082;8.816;2024-02-04T06:21:41;101660.75;;;10.12;65.65
64889;BME280;51386;53.082;8.816;2024-02-04T06:24:10;101649.53;;;10.10;65.73
64889;BME280;51386;53.082;8.816;2024-02-04T06:26:38;101657.41;;;10.10;65.67
64889;BME280;51386;53.082;8.816;2024-02-04T06:29:07;101645.38;;;10.07;65.63
64889;BME280;51386;53.082;8.816;2024-02-04T06:31:36;101661.00;;;10.09;65.73
64889;BME280;51386;53.082;8.816;2024-02-04T06:34:04;101663.63;;;10.09;65.98
64889;BME280;51386;53.082;8.816;2024-02-04T06:36:32;101647.03;;;10.08;65.84
64889;BME280;51386;53.082;8.816;2024-02-04T06:39:01;101660.16;;;10.08;65.78
64889;BME280;51386;53.082;8.816;2024-02-04T06:41:29;101682.03;;;10.09;66.03
64889;BME280;51386;53.082;8.816;2024-02-04T06:43:57;101652.16;;;10.10;66.12
64889;BME280;51386;53.082;8.816;2024-02-04T06:46:27;101645.63;;;10.14;66.18
64889;BME280;51386;53.082;8.816;2024-02-04T06:48:55;101650.63;;;10.17;66.00
64889;BME280;51386;53.082;8.816;2024-02-04T06:51:24;101652.25;;;10.18;66.08
64889;BME280;51386;53.082;8.816;2024-02-04T06:53:52;101651.28;;;10.19;65.83
64889;BME280;51386;53.082;8.816;2024-02-04T06:56:21;101653.75;;;10.20;65.88
64889;BME280;51386;53.082;8.816;2024-02-04T06:58:49;101654.59;;;10.21;66.08
64889;BME280;51386;53.082;8.816;2024-02-04T07:01:17;101645.72;;;10.22;65.95
64889;BME280;51386;53.082;8.816;2024-02-04T07:03:46;101642.09;;;10.23;66.10
64889;BME280;51386;53.082;8.816;2024-02-04T07:06:15;101647.38;;;10.23;65.82
64889;BME280;51386;53.082;8.816;2024-02-04T07:08:43;101642.94;;;10.24;66.21
64889;BME280;51386;53.082;8.816;2024-02-04T07:11:11;101648.72;;;10.27;65.84
64889;BME280;51386;53.082;8.816;2024-02-04T07:13:40;101661.75;;;10.29;65.93
64889;BME280;51386;53.082;8.816;2024-02-04T07:16:08;101641.53;;;10.29;65.78
64889;BME280;51386;53.082;8.816;2024-02-04T07:18:37;101657.00;;;10.32;65.93
64889;BME280;51386;53.082;8.816;2024-02-04T07:21:05;101642.56;;;10.36;65.75
64889;BME280;51386;53.082;8.816;2024-02-04T07:23:34;101640.63;;;10.38;65.59
64889;BME280;51386;53.082;8.816;2024-02-04T07:26:02;101656.06;;;10.41;65.65
64889;BME280;51386;53.082;8.816;2024-02-04T07:28:31;101653.16;;;10.44;65.49
64889;BME280;51386;53.082;8.816;2024-02-04T07:30:59;101638.75;;;10.48;65.45
64889;BME280;51386;53.082;8.816;2024-02-04T07:33:27;101639.41;;;10.50;65.22
64889;BME280;51386;53.082;8.816;2024-02-04T07:35:59;101645.34;;;10.52;65.42
64889;BME280;51386;53.082;8.816;2024-02-04T07:38:27;101651.13;;;10.56;65.27
64889;BME280;51386;53.082;8.816;2024-02-04T07:40:55;101621.03;;;10.58;64.99
64889;BME280;51386;53.082;8.816;2024-02-04T07:43:26;101611.88;;;10.62;65.12
64889;BME280;51386;53.082;8.816;2024-02-04T07:45:55;101616.81;;;10.65;64.81
64889;BME280;51386;53.082;8.816;2024-02-04T07:48:28;101614.84;;;10.67;64.58
64889;BME280;51386;53.082;8.816;2024-02-04T07:50:56;101613.72;;;10.70;64.81
64889;BME280;51386;53.082;8.816;2024-02-04T07:53:25;101602.03;;;10.72;64.61
64889;BME280;51386;53.082;8.816;2024-02-04T07:55:53;101606.19;;;10.75;64.48
64889;BME280;51386;53.082;8.816;2024-02-04T07:58:21;101598.44;;;10.73;64.22
64889;BME280;51386;53.082;8.816;2024-02-04T08:00:50;101612.28;;;10.75;64.05
64889;BME280;51386;53.082;8.816;2024-02-04T08:03:18;101595.34;;;10.78;63.97
64889;BME280;51386;53.082;8.816;2024-02-04T08:05:47;101596.84;;;10.80;64.03
64889;BME280;51386;53.082;8.816;2024-02-04T08:08:15;101613.97;;;10.84;64.16
64889;BME280;51386;53.082;8.816;2024-02-04T08:10:44;101606.63;;;10.88;63.92
64889;BME280;51386;53.082;8.816;2024-02-04T08:13:12;101620.44;;;10.90;63.77
64889;BME280;51386;53.082;8.816;2024-02-04T08:15:40;101632.19;;;10.96;63.58
64889;BME280;51386;53.082;8.816;2024-02-04T08:18:09;101631.03;;;10.98;63.26
64889;BME280;51386;53.082;8.816;2024-02-04T08:20:37;101625.31;;;11.03;63.26
64889;BME280;51386;53.082;8.816;2024-02-04T08:23:06;101628.63;;;11.05;62.94
64889;BME280;51386;53.082;8.816;2024-02-04T08:25:34;101645.09;;;11.07;62.91
64889;BME280;51386;53.082;8.816;2024-02-04T08:28:03;101641.81;;;11.13;62.71
64889;BME280;51386;53.082;8.816;2024-02-04T08:30:32;101641.50;;;11.16;62.54
64889;BME280;51386;53.082;8.816;2024-02-04T08:33:01;101639.53;;;11.18;62.52
64889;BME280;51386;53.082;8.816;2024-02-04T08:35:29;101635.78;;;11.20;61.84
64889;BME280;51386;53.082;8.816;2024-02-04T08:37:58;101632.00;;;11.23;62.10
64889;BME280;51386;53.082;8.816;2024-02-04T08:40:26;101623.13;;;11.24;61.93
64889;BME280;51386;53.082;8.816;2024-02-04T08:42:55;101629.22;;;11.24;61.64
64889;BME280;51386;53.082;8.816;2024-02-04T08:45:23;101641.94;;;11.29;61.42
64889;BME280;51386;53.082;8.816;2024-02-04T08:47:51;101629.25;;;11.32;61.05
64889;BME280;51386;53.082;8.816;2024-02-04T08:50:20;101621.88;;;11.36;61.07
64889;BME280;51386;53.082;8.816;2024-02-04T08:52:48;101624.88;;;11.41;61.01
64889;BME280;51386;53.082;8.816;2024-02-04T08:55:17;101636.72;;;11.45;60.60
64889;BME280;51386;53.082;8.816;2024-02-04T08:57:45;101632.13;;;11.47;60.48
64889;BME280;51386;53.082;8.816;2024-02-04T09:00:17;101630.16;;;11.49;60.39
64889;BME280;51386;53.082;8.816;2024-02-04T09:02:46;101625.53;;;11.51;60.42
64889;BME280;51386;53.082;8.816;2024-02-04T09:05:14;101619.97;;;11.54;60.43
64889;BME280;51386;53.082;8.816;2024-02-04T09:07:44;101629.06;;;11.60;60.43
64889;BME280;51386;53.082;8.816;2024-02-04T09:10:13;101615.53;;;11.63;60.22
64889;BME280;51386;53.082;8.816;2024-02-04T09:12:41;101641.91;;;11.63;60.10
64889;BME280;51386;53.082;8.816;2024-02-04T09:15:10;101639.13;;;11.64;59.65
64889;BME280;51386;53.082;8.816;2024-02-04T09:17:39;101638.94;;;11.66;59.83
64889;BME280;51386;53.082;8.816;2024-02-04T09:20:07;101639.50;;;11.69;59.81
64889;BME280;51386;53.082;8.816;2024-02-04T09:22:36;101634.72;;;11.73;59.76
64889;BME280;51386;53.082;8.816;2024-02-04T09:25:06;101636.03;;;11.77;59.62
64889;BME280;51386;53.082;8.816;2024-02-04T09:27:34;101637.53;;;11.79;59.31
64889;BME280;51386;53.082;8.816;2024-02-04T09:30:04;101630.97;;;11.83;59.02
64889;BME280;51386;53.082;8.816;2024-02-04T09:32:33;101635.09;;;11.86;59.27
64889;BME280;51386;53.082;8.816;2024-02-04T09:35:02;101639.25;;;11.88;58.86
64889;BME280;51386;53.082;8.816;2024-02-04T09:37:32;101642.53;;;11.90;59.07
64889;BME280;51386;53.082;8.816;2024-02-04T09:40:01;101623.91;;;11.92;58.72
64889;BME280;51386;53.082;8.816;2024-02-04T09:42:30;101622.75;;;11.94;58.18
64889;BME280;51386;53.082;8.816;2024-02-04T09:45:00;101635.63;;;11.97;58.67
64889;BME280;51386;53.082;8.816;2024-02-04T09:47:29;101615.84;;;12.01;58.57
64889;BME280;51386;53.082;8.816;2024-02-04T09:49:58;101625.06;;;12.05;58.53
64889;BME280;51386;53.082;8.816;2024-02-04T09:52:33;101618.00;;;12.06;58.16
64889;BME280;51386;53.082;8.816;2024-02-04T09:55:03;101610.59;;;12.09;58.00
64889;BME280;51386;53.082;8.816;2024-02-04T09:57:34;101598.38;;;12.08;57.73
64889;BME280;51386;53.082;8.816;2024-02-04T10:00:03;101605.78;;;12.13;57.85
64889;BME280;51386;53.082;8.816;2024-02-04T10:02:33;101613.88;;;12.19;57.91
64889;BME280;51386;53.082;8.816;2024-02-04T10:05:02;101608.63;;;12.28;57.81
64889;BME280;51386;53.082;8.816;2024-02-04T10:07:31;101607.47;;;12.38;57.60
64889;BME280;51386;53.082;8.816;2024-02-04T10:10:01;101635.88;;;12.52;57.45
64889;BME280;51386;53.082;8.816;2024-02-04T10:12:29;101620.84;;;12.61;57.38
64889;BME280;51386;53.082;8.816;2024-02-04T10:14:59;101614.56;;;12.70;57.39
64889;BME280;51386;53.082;8.816;2024-02-04T10:17:27;101610.25;;;12.77;56.72
64889;BME280;51386;53.082;8.816;2024-02-04T10:19:57;101613.41;;;12.80;57.36
64889;BME280;51386;53.082;8.816;2024-02-04T10:22:26;101620.16;;;12.83;56.72
64889;BME280;51386;53.082;8.816;2024-02-04T10:25:09;101618.19;;;12.85;56.78
64889;BME280;51386;53.082;8.816;2024-02-04T10:27:41;101612.91;;;12.85;56.17
64889;BME280;51386;53.082;8.816;2024-02-04T10:30:11;101598.66;;;12.86;56.43
64889;BME280;51386;53.082;8.816;2024-02-04T10:32:41;101610.91;;;12.87;56.62
64889;BME280;51386;53.082;8.816;2024-02-04T10:35:10;101597.38;;;12.90;56.17
64889;BME280;51386;53.082;8.816;2024-02-04T10:37:39;101602.13;;;12.95;56.06
64889;BME280;51386;53.082;8.816;2024-02-04T10:40:08;101594.03;;;13.04;56.29
64889;BME280;51386;53.082;8.816;2024-02-04T10:42:38;101609.88;;;13.12;56.06
64889;BME280;51386;53.082;8.816;2024-02-04T10:45:10;101608.88;;;13.21;55.78
64889;BME280;51386;53.082;8.816;2024-02-04T10:47:39;101601.59;;;13.23;55.56
64889;BME280;51386;53.082;8.816;2024-02-04T10:50:08;101604.56;;;13.28;55.50
64889;BME280;51386;53.082;8.816;2024-02-04T10:52:39;101604.19;;;13.31;55.03
64889;BME280;51386;53.082;8.816;2024-02-04T10:55:10;101602.56;;;13.30;54.92
64889;BME280;51386;53.082;8.816;2024-02-04T10:57:40;101592.00;;;13.30;54.99
64889;BME280;51386;53.082;8.816;2024-02-04T11:00:10;101591.16;;;13.30;55.08
64889;BME280;51386;53.082;8.816;2024-02-04T11:02:42;101589.34;;;13.30;54.91
64889;BME280;51386;53.082;8.816;2024-02-04T11:05:12;101602.91;;;13.27;55.05
64889;BME280;51386;53.082;8.816;2024-02-04T11:07:41;101602.25;;;13.25;54.85
64889;BME280;51386;53.082;8.816;2024-02-04T11:10:11;101596.66;;;13.20;54.92
64889;BME280;51386;53.082;8.816;2024-02-04T11:12:41;101608.56;;;13.16;54.95
64889;BME280;51386;53.082;8.816;2024-02-04T11:15:13;101602.97;;;13.11;54.83
64889;BME280;51386;53.082;8.816;2024-02-04T11:21:49;101592.88;;;12.99;55.25
64889;BME280;51386;53.082;8.816;2024-02-04T11:25:17;101583.59;;;13.03;55.76
64889;BME280;51386;53.082;8.816;2024-02-04T11:27:51;101575.03;;;13.09;55.20
64889;BME280;51386;53.082;8.816;2024-02-04T11:30:20;101587.75;;;13.13;55.55
64889;BME280;51386;53.082;8.816;2024-02-04T11:32:50;101583.13;;;13.15;55.30
64889;BME280;51386;53.082;8.816;2024-02-04T11:35:20;101576.66;;;13.18;55.38
64889;BME280;51386;53.082;8.816;2024-02-04T11:37:53;101580.13;;;13.18;55.42
64889;BME280;51386;53.082;8.816;2024-02-04T11:40:33;101584.41;;;13.19;55.50
64889;BME280;51386;53.082;8.816;2024-02-04T11:43:14;101575.16;;;13.23;55.35
64889;BME280;51386;53.082;8.816;2024-02-04T11:45:45;101571.19;;;13.27;54.96
64889;BME280;51386;53.082;8.816;2024-02-04T11:48:13;101561.09;;;13.31;55.37
64889;BME280;51386;53.082;8.816;2024-02-04T11:50:42;101563.22;;;13.35;54.96
64889;BME280;51386;53.082;8.816;2024-02-04T11:53:12;101543.69;;;13.36;54.84
64889;BME280;51386;53.082;8.816;2024-02-04T11:55:41;101554.13;;;13.38;54.79
64889;BME280;51386;53.082;8.816;2024-02-04T11:58:12;101563.34;;;13.42;54.66
64889;BME280;51386;53.082;8.816;2024-02-04T12:00:45;101555.88;;;13.45;54.86
64889;BME280;51386;53.082;8.816;2024-02-04T12:03:13;101565.59;;;13.53;54.54
64889;BME280;51386;53.082;8.816;2024-02-04T12:05:43;101557.63;;;13.61;54.32
64889;BME280;51386;53.082;8.816;2024-02-04T12:08:12;101567.69;;;13.66;54.52
64889;BME280;51386;53.082;8.816;2024-02-04T12:10:41;101564.69;;;13.69;54.13
64889;BME280;51386;53.082;8.816;2024-02-04T12:13:10;101564.69;;;13.69;53.99
64889;BME280;51386;53.082;8.816;2024-02-04T12:15:39;101567.34;;;13.69;53.87
64889;BME280;51386;53.082;8.816;2024-02-04T12:18:10;101571.81;;;13.68;53.84
64889;BME280;51386;53.082;8.816;2024-02-04T12:20:39;101562.72;;;13.63;53.86
64889;BME280;51386;53.082;8.816;2024-02-04T12:23:08;101562.44;;;13.57;54.10
64889;BME280;51386;53.082;8.816;2024-02-04T12:25:37;101561.13;;;13.53;53.63
64889;BME280;51386;53.082;8.816;2024-02-04T12:28:10;101558.84;;;13.50;53.95
64889;BME280;51386;53.082;8.816;2024-02-04T12:30:39;101556.56;;;13.47;54.10
64889;BME280;51386;53.082;8.816;2024-02-04T12:33:08;101557.53;;;13.46;54.29
64889;BME280;51386;53.082;8.816;2024-02-04T12:35:37;101562.19;;;13.44;54.51
64889;BME280;51386;53.082;8.816;2024-02-04T12:38:06;101562.50;;;13.41;54.21
64889;BME280;51386;53.082;8.816;2024-02-04T12:40:35;101555.59;;;13.40;54.20
64889;BME280;51386;53.082;8.816;2024-02-04T12:43:04;101546.97;;;13.38;54.64
64889;BME280;51386;53.082;8.816;2024-02-04T12:45:33;101554.28;;;13.36;54.25
64889;BME280;51386;53.082;8.816;2024-02-04T12:48:02;101546.03;;;13.31;54.59
64889;BME280;51386;53.082;8.816;2024-02-04T12:50:30;101549.03;;;13.28;54.56
64889;BME280;51386;53.082;8.816;2024-02-04T12:53:07;101536.16;;;13.25;54.85
64889;BME280;51386;53.082;8.816;2024-02-04T12:55:37;101529.06;;;13.26;54.90
64889;BME280;51386;53.082;8.816;2024-02-04T12:58:08;101529.06;;;13.26;54.95
64889;BME280;51386;53.082;8.816;2024-02-04T13:00:40;101524.94;;;13.23;55.05
64889;BME280;51386;53.082;8.816;2024-02-04T13:03:09;101520.97;;;13.19;55.09
64889;BME280;51386;53.082;8.816;2024-02-04T13:05:38;101529.06;;;13.18;55.46
64889;BME280;51386;53.082;8.816;2024-02-04T13:08:07;101517.84;;;13.16;55.18
64889;BME280;51386;53.082;8.816;2024-02-04T13:10:36;101520.69;;;13.14;55.21
64889;BME280;51386;53.082;8.816;2024-02-04T13:13:07;101531.41;;;13.13;55.31